Time;durP1;ratioP1;P1;durP2;ratioP2;P2;SDS_P1;SDS_P2;PMS_P1;PMS_P2;Temp;Humidity;BMP_temperature;BMP_pressure;BME280_temperature;BME280_humidity;BME280_pressure;Samples;Min_cycle;Max_cycle;Signal;HPM_P1;HPM_P2
2023/07/05 00:00:16;;;;;;;8.43;5.85;;;15.80;99.90;;;;;;5027392;28;20052;-49
2023/07/05 00:02:42;;;;;;;9.68;6.63;;;15.80;99.90;;;;;;5028461;28;20410;-51
2023/07/05 00:05:08;;;;;;;11.73;6.47;;;15.70;99.90;;;;;;5027872;28;20088;-49
2023/07/05 00:07:34;;;;;;;13.13;6.30;;;15.70;99.90;;;;;;5027403;28;20037;-48
2023/07/05 00:10:00;;;;;;;12.88;6.22;;;15.70;99.90;;;;;;5030582;28;20034;-51
2023/07/05 00:12:25;;;;;;;11.52;6.75;;;15.70;99.90;;;;;;5028578;28;20052;-48
2023/07/05 00:14:51;;;;;;;21.70;8.00;;;15.60;99.90;;;;;;5028156;28;20041;-49
2023/07/05 00:17:17;;;;;;;13.13;7.05;;;15.60;99.90;;;;;;5028447;28;20037;-51
2023/07/05 00:19:42;;;;;;;13.02;7.40;;;15.60;99.90;;;;;;5027962;28;20045;-48
2023/07/05 00:22:08;;;;;;;11.93;7.40;;;15.50;99.90;;;;;;5028528;28;20033;-49
2023/07/05 00:24:34;;;;;;;14.75;6.30;;;15.50;99.90;;;;;;5027706;28;20388;-48
2023/07/05 00:26:59;;;;;;;12.68;7.40;;;15.60;99.90;;;;;;5028492;28;20479;-51
2023/07/05 00:29:26;;;;;;;15.07;7.35;;;15.60;99.90;;;;;;5030190;28;20037;-49
2023/07/05 00:31:52;;;;;;;12.13;6.55;;;15.50;99.90;;;;;;5035295;28;20045;-52
2023/07/05 00:34:18;;;;;;;14.45;7.43;;;15.50;99.90;;;;;;5034329;28;20043;-51
2023/07/05 00:36:44;;;;;;;11.93;7.90;;;15.50;99.90;;;;;;5034394;28;20407;-49
2023/07/05 00:39:09;;;;;;;19.67;8.32;;;15.50;99.90;;;;;;5034043;28;20048;-51
2023/07/05 00:41:35;;;;;;;16.83;7.07;;;15.50;99.90;;;;;;5035386;28;20033;-48
2023/07/05 00:44:01;;;;;;;13.18;7.45;;;15.50;99.90;;;;;;5034454;28;20449;-48
2023/07/05 00:46:30;;;;;;;9.32;6.70;;;15.50;99.90;;;;;;5034892;28;20040;-50
2023/07/05 00:49:15;;;;;;;16.75;7.40;;;15.60;99.90;;;;;;5034421;28;20041;-48
2023/07/05 00:51:47;;;;;;;14.38;8.27;;;15.50;99.90;;;;;;5034826;28;20047;-51
2023/07/05 00:54:14;;;;;;;11.82;7.30;;;15.50;99.90;;;;;;5034677;28;20108;-48
2023/07/05 00:56:52;;;;;;;11.85;7.53;;;15.50;99.90;;;;;;5034970;28;20453;-48
2023/07/05 00:59:20;;;;;;;11.88;7.90;;;15.50;99.90;;;;;;5034293;28;20104;-48
2023/07/05 01:01:45;;;;;;;14.02;7.38;;;15.50;99.90;;;;;;5035044;28;20041;-48
2023/07/05 01:04:11;;;;;;;14.57;8.45;;;15.50;99.90;;;;;;5034378;28;20460;-51
2023/07/05 01:06:39;;;;;;;14.43;7.65;;;15.50;99.90;;;;;;5034578;28;20041;-51
2023/07/05 01:09:06;;;;;;;10.23;8.43;;;15.50;99.90;;;;;;5033971;28;20036;-48
2023/07/05 01:11:59;;;;;;;14.48;8.23;;;15.50;99.90;;;;;;5034575;28;20040;-51
2023/07/05 01:14:39;;;;;;;20.95;9.57;;;15.40;99.90;;;;;;5034286;28;20041;-48
2023/07/05 01:17:19;;;;;;;16.73;8.70;;;15.50;99.90;;;;;;5034318;28;20064;-48
2023/07/05 01:20:01;;;;;;;19.67;8.68;;;15.40;99.90;;;;;;5034117;28;20065;-48
2023/07/05 01:22:55;;;;;;;22.92;10.10;;;15.40;99.90;;;;;;5034247;28;20545;-48
2023/07/05 01:25:32;;;;;;;12.45;8.50;;;15.30;99.90;;;;;;5034159;28;20087;-48
2023/07/05 01:28:06;;;;;;;16.65;9.43;;;15.30;99.90;;;;;;5033817;28;20069;-48
2023/07/05 01:30:46;;;;;;;25.30;10.52;;;15.20;99.90;;;;;;5034733;28;20112;-51
2023/07/05 01:33:14;;;;;;;24.40;10.73;;;15.20;99.90;;;;;;5034068;28;20482;-48
2023/07/05 01:35:48;;;;;;;19.60;11.35;;;15.20;99.90;;;;;;5034581;28;20453;-48
2023/07/05 01:38:13;;;;;;;21.30;11.27;;;15.10;99.90;;;;;;5033499;28;20041;-48
2023/07/05 01:40:39;;;;;;;22.15;10.30;;;15.10;99.90;;;;;;5032075;28;20041;-48
2023/07/05 01:43:11;;;;;;;17.13;10.02;;;15.10;99.90;;;;;;5030868;28;20045;-48
2023/07/05 01:46:00;;;;;;;13.88;10.52;;;15.00;99.90;;;;;;5030751;28;20037;-48
2023/07/05 01:48:37;;;;;;;17.23;10.57;;;15.00;99.90;;;;;;5030335;28;20041;-48
2023/07/05 01:51:13;;;;;;;15.73;11.55;;;15.00;99.90;;;;;;5030351;28;20041;-51
2023/07/05 01:54:17;;;;;;;20.65;10.77;;;15.00;99.90;;;;;;5028999;28;20038;-49
2023/07/05 01:57:04;;;;;;;18.73;12.02;;;15.00;99.90;;;;;;5030306;28;20052;-50
2023/07/05 01:59:45;;;;;;;17.30;10.93;;;14.90;99.90;;;;;;5028219;28;20410;-48
2023/07/05 02:02:14;;;;;;;16.92;11.10;;;14.90;99.90;;;;;;5029104;28;20037;-50
2023/07/05 02:04:41;;;;;;;19.95;11.05;;;14.90;99.90;;;;;;5028069;28;20069;-50
2023/07/05 02:07:07;;;;;;;17.13;11.75;;;14.90;99.90;;;;;;5025929;28;20065;-51
2023/07/05 02:09:39;;;;;;;22.80;12.55;;;14.90;99.90;;;;;;5030133;28;20489;-51
2023/07/05 02:15:50;;;;;;;15.25;11.77;;;14.80;99.90;;;;;;4993357;28;20079;-51
2023/07/05 02:18:16;;;;;;;16.85;11.63;;;14.80;99.90;;;;;;4994189;28;20034;-50
2023/07/05 02:20:42;;;;;;;15.45;12.10;;;14.80;99.90;;;;;;4985016;28;20050;-48
2023/07/05 02:23:08;;;;;;;17.70;12.40;;;14.80;99.90;;;;;;4991622;28;20030;-51
2023/07/05 02:25:34;;;;;;;15.90;11.85;;;14.80;99.90;;;;;;4990840;28;20124;-48
2023/07/05 02:28:00;;;;;;;18.45;12.52;;;14.80;99.90;;;;;;4991841;28;20027;-48
2023/07/05 02:30:26;;;;;;;20.13;12.52;;;14.80;99.90;;;;;;4991510;28;20161;-51
2023/07/05 02:32:52;;;;;;;24.23;12.63;;;14.80;99.90;;;;;;4991087;28;20034;-48
2023/07/05 02:35:18;;;;;;;21.73;12.38;;;14.80;99.90;;;;;;4989888;28;20038;-51
2023/07/05 02:37:43;;;;;;;19.98;12.23;;;14.70;99.90;;;;;;4986216;28;20050;-48
2023/07/05 02:40:09;;;;;;;25.40;13.45;;;14.70;99.90;;;;;;4991395;28;20527;-48
2023/07/05 02:42:34;;;;;;;17.85;13.05;;;14.70;99.90;;;;;;4991202;28;20037;-48
2023/07/05 02:45:00;;;;;;;21.10;13.27;;;14.70;99.90;;;;;;4990145;28;20415;-48
2023/07/05 02:47:26;;;;;;;22.92;12.80;;;14.70;99.90;;;;;;4991142;28;20431;-51
2023/07/05 02:49:51;;;;;;;20.35;12.68;;;14.70;99.90;;;;;;4990956;28;20046;-48
2023/07/05 02:52:17;;;;;;;26.27;13.73;;;14.70;99.90;;;;;;4989335;28;20038;-49
2023/07/05 02:54:42;;;;;;;17.98;13.73;;;14.70;99.90;;;;;;4991160;28;20037;-48
2023/07/05 02:57:08;;;;;;;26.55;13.90;;;14.70;99.90;;;;;;4990685;28;20057;-49
2023/07/05 02:59:34;;;;;;;19.90;13.10;;;14.70;99.90;;;;;;4991474;28;20154;-48
2023/07/05 03:01:59;;;;;;;24.77;14.02;;;14.70;99.90;;;;;;4990997;28;20491;-48
2023/07/05 03:04:27;;;;;;;15.48;12.15;;;14.70;99.90;;;;;;4990527;28;20037;-48
2023/07/05 03:06:53;;;;;;;19.40;14.00;;;14.70;99.90;;;;;;4990151;28;20038;-48
2023/07/05 03:09:19;;;;;;;18.20;13.02;;;14.80;99.90;;;;;;4991036;28;20057;-49
2023/07/05 03:11:44;;;;;;;30.63;13.85;;;14.70;99.90;;;;;;4990563;28;20041;-48
2023/07/05 03:14:10;;;;;;;21.98;13.55;;;14.80;99.90;;;;;;4990489;28;20030;-48
2023/07/05 03:16:35;;;;;;;15.05;12.15;;;14.80;99.90;;;;;;4990401;28;20534;-49
2023/07/05 03:19:01;;;;;;;17.17;13.05;;;14.80;99.90;;;;;;4988889;28;20034;-51
2023/07/05 03:21:27;;;;;;;16.80;12.75;;;14.90;99.90;;;;;;4990732;28;20118;-48
2023/07/05 03:23:52;;;;;;;19.88;12.23;;;15.00;99.90;;;;;;4990490;28;20484;-48
2023/07/05 03:26:18;;;;;;;19.05;13.07;;;14.90;99.90;;;;;;4990701;28;20467;-48
2023/07/05 03:28:44;;;;;;;19.25;12.65;;;15.00;99.90;;;;;;4990439;28;20122;-50
2023/07/05 03:31:15;;;;;;;17.50;13.48;;;15.00;99.90;;;;;;4990393;28;20049;-48
2023/07/05 03:33:41;;;;;;;21.38;12.23;;;15.00;99.90;;;;;;4990506;28;20043;-51
2023/07/05 03:36:18;;;;;;;16.85;12.07;;;15.10;99.90;;;;;;4988851;28;20046;-52
2023/07/05 03:38:44;;;;;;;19.58;12.00;;;15.10;99.90;;;;;;4988505;28;20038;-48
2023/07/05 03:41:14;;;;;;;;;;;15.10;99.90;;;;;;4990921;28;20050;-48
2023/07/05 03:43:42;;;;;;;15.10;12.18;;;15.20;99.90;;;;;;4989915;28;20433;-48
2023/07/05 03:46:11;;;;;;;15.88;12.10;;;15.20;99.90;;;;;;4987823;28;20037;-48
2023/07/05 03:48:38;;;;;;;16.42;12.38;;;15.20;99.90;;;;;;4989830;28;20051;-48
2023/07/05 03:51:04;;;;;;;25.45;14.27;;;15.30;99.90;;;;;;4990554;28;20039;-48
2023/07/05 03:53:33;;;;;;;19.02;11.50;;;15.30;99.90;;;;;;4990467;28;20164;-53
2023/07/05 03:56:04;;;;;;;12.38;10.63;;;15.30;99.90;;;;;;4989780;28;20511;-49
2023/07/05 03:58:30;;;;;;;13.77;9.27;;;15.40;99.90;;;;;;4990145;28;20093;-48
2023/07/05 04:01:14;;;;;;;14.30;10.18;;;15.40;99.90;;;;;;4989545;28;20053;-51
2023/07/05 04:03:40;;;;;;;19.00;9.55;;;15.60;99.90;;;;;;4989242;28;20034;-49
2023/07/05 04:06:06;;;;;;;;;;;15.60;99.90;;;;;;4990080;28;20038;-48
2023/07/05 04:08:31;;;;;;;10.60;7.57;;;15.70;99.90;;;;;;5021510;28;19918;-49
2023/07/05 04:10:57;;;;;;;13.13;8.10;;;15.80;99.90;;;;;;4989872;28;20030;-48
2023/07/05 04:13:22;;;;;;;8.75;7.35;;;15.80;99.90;;;;;;4989211;28;20356;-49
2023/07/05 04:16:04;;;;;;;8.13;6.93;;;15.90;99.90;;;;;;4988697;28;20715;-48
2023/07/05 04:18:32;;;;;;;10.10;5.68;;;15.90;99.90;;;;;;4988009;28;20031;-50
2023/07/05 04:20:58;;;;;;;6.07;5.30;;;15.90;99.90;;;;;;4989029;28;20034;-48
2023/07/05 04:23:25;;;;;;;8.05;5.18;;;16.00;99.90;;;;;;4988743;28;20038;-48
2023/07/05 04:25:59;;;;;;;10.13;4.90;;;16.00;99.90;;;;;;4987462;28;20030;-52
2023/07/05 04:28:24;;;;;;;6.00;3.97;;;16.00;99.90;;;;;;4988430;28;20054;-49
2023/07/05 04:30:50;;;;;;;5.47;3.92;;;16.00;99.90;;;;;;4989807;28;20030;-48
2023/07/05 04:33:15;;;;;;;7.50;3.55;;;16.00;99.90;;;;;;4989644;28;20180;-50
2023/07/05 04:35:49;;;;;;;3.28;2.40;;;16.00;99.90;;;;;;4988904;28;20046;-50
2023/07/05 04:38:15;;;;;;;3.97;2.53;;;16.00;99.90;;;;;;4987192;28;20048;-48
2023/07/05 04:40:41;;;;;;;3.60;2.25;;;15.90;99.90;;;;;;4988131;28;20478;-48
2023/07/05 04:43:07;;;;;;;1.98;1.67;;;15.90;99.90;;;;;;4989631;28;20050;-48
2023/07/05 04:45:33;;;;;;;4.65;2.05;;;15.70;99.90;;;;;;4989531;28;20121;-48
2023/07/05 04:47:58;;;;;;;2.92;2.60;;;15.60;99.90;;;;;;4989439;28;20185;-48
2023/07/05 04:50:24;;;;;;;7.63;2.90;;;15.50;99.90;;;;;;4989514;28;20034;-50
2023/07/05 04:52:49;;;;;;;5.25;2.47;;;15.30;99.90;;;;;;4990081;28;20038;-48
2023/07/05 04:55:15;;;;;;;3.10;2.80;;;15.20;99.90;;;;;;4989230;28;20035;-48
2023/07/05 04:57:43;;;;;;;3.70;2.78;;;15.10;99.90;;;;;;4988345;28;20050;-48
2023/07/05 05:00:11;;;;;;;3.53;2.83;;;15.10;99.90;;;;;;4989732;28;20461;-48
2023/07/05 05:02:38;;;;;;;4.38;3.20;;;15.00;99.90;;;;;;4989517;28;20042;-51
2023/07/05 05:05:05;;;;;;;4.43;3.25;;;14.90;99.90;;;;;;4989104;28;20046;-48
2023/07/05 05:07:30;;;;;;;3.90;2.80;;;14.90;99.90;;;;;;4989259;28;20110;-50
2023/07/05 05:09:58;;;;;;;4.13;2.75;;;14.80;99.90;;;;;;4988700;28;20375;-51
2023/07/05 05:12:24;;;;;;;2.72;2.30;;;14.80;99.90;;;;;;4989340;28;20030;-51
2023/07/05 05:14:49;;;;;;;4.65;2.75;;;14.80;99.90;;;;;;4989094;28;20670;-48
2023/07/05 05:17:15;;;;;;;4.95;2.72;;;14.70;99.90;;;;;;4992255;28;20062;-48
2023/07/05 05:19:41;;;;;;;2.90;2.42;;;14.70;99.90;;;;;;4993168;28;20566;-51
2023/07/05 05:22:06;;;;;;;2.83;2.42;;;14.70;99.90;;;;;;4992834;28;20038;-50
2023/07/05 05:24:32;;;;;;;3.60;2.40;;;14.70;99.90;;;;;;4992393;28;20136;-53
2023/07/05 05:26:58;;;;;;;4.47;2.28;;;14.70;99.90;;;;;;4992659;28;20030;-48
2023/07/05 05:29:23;;;;;;;2.28;1.90;;;14.70;99.90;;;;;;4991087;28;20031;-48
2023/07/05 05:31:49;;;;;;;4.82;2.88;;;14.70;99.90;;;;;;4992643;28;20030;-48
2023/07/05 05:34:15;;;;;;;2.70;2.40;;;14.80;99.90;;;;;;4992153;28;20096;-48
2023/07/05 05:36:41;;;;;;;4.25;2.35;;;14.80;99.90;;;;;;4992440;28;20559;-49
2023/07/05 05:39:07;;;;;;;6.68;2.70;;;14.80;99.90;;;;;;4992072;28;20100;-50
2023/07/05 05:41:33;;;;;;;2.35;2.15;;;14.80;99.90;;;;;;4992857;28;20076;-49
2023/07/05 05:43:59;;;;;;;3.05;2.60;;;14.80;99.90;;;;;;4992253;28;20070;-50
2023/07/05 05:46:24;;;;;;;3.35;2.38;;;14.80;99.90;;;;;;4992746;28;20423;-50
2023/07/05 05:48:50;;;;;;;2.72;2.38;;;14.80;99.90;;;;;;4992874;28;20130;-48
2023/07/05 05:51:16;;;;;;;3.58;2.40;;;14.80;99.90;;;;;;4992342;28;20396;-50
2023/07/05 05:53:42;;;;;;;4.32;2.30;;;14.80;99.90;;;;;;4992239;28;20484;-48
2023/07/05 05:56:07;;;;;;;5.70;2.97;;;14.80;99.90;;;;;;4992031;28;20492;-48
2023/07/05 05:58:33;;;;;;;5.32;2.30;;;14.80;99.90;;;;;;4992300;28;20030;-50
2023/07/05 06:01:03;;;;;;;5.13;2.90;;;14.80;99.90;;;;;;4992541;28;20038;-48
2023/07/05 06:03:29;;;;;;;3.97;2.58;;;14.80;99.90;;;;;;4991430;28;20041;-51
2023/07/05 06:05:56;;;;;;;4.75;3.00;;;14.80;99.90;;;;;;4991692;28;20125;-48
2023/07/05 06:08:23;;;;;;;3.72;2.65;;;14.80;99.90;;;;;;4992349;28;20042;-48
2023/07/05 06:10:55;;;;;;;;;;;14.90;99.90;;;;;;4992525;28;20034;-48
2023/07/05 06:13:21;;;;;;;4.13;2.65;;;14.80;99.90;;;;;;4991974;28;19924;-54
2023/07/05 06:15:56;;;;;;;3.35;2.38;;;14.80;99.90;;;;;;4991497;28;20035;-48
2023/07/05 06:18:22;;;;;;;4.88;2.35;;;14.80;99.90;;;;;;4989085;28;20078;-50
2023/07/05 06:20:48;;;;;;;6.90;2.63;;;14.80;99.90;;;;;;4991679;28;20132;-48
2023/07/05 06:23:13;;;;;;;6.40;2.90;;;14.80;99.90;;;;;;4991643;28;20521;-50
2023/07/05 06:25:39;;;;;;;3.63;3.00;;;14.80;99.90;;;;;;4991431;28;20049;-48
2023/07/05 06:28:04;;;;;;;7.10;3.13;;;14.90;99.90;;;;;;4991299;28;20046;-48
2023/07/05 06:30:30;;;;;;;9.00;3.63;;;14.90;99.90;;;;;;4990117;28;20412;-48
2023/07/05 06:32:56;;;;;;;4.72;3.13;;;14.90;99.90;;;;;;4990041;28;20037;-53
2023/07/05 06:35:21;;;;;;;5.60;2.05;;;15.00;99.90;;;;;;4990673;28;20042;-52
2023/07/05 06:37:47;;;;;;;4.68;3.78;;;15.00;99.90;;;;;;4988644;28;20490;-50
2023/07/05 06:40:13;;;;;;;9.07;2.90;;;15.10;99.90;;;;;;4991472;28;20038;-48
2023/07/05 06:42:39;;;;;;;5.70;2.88;;;15.10;99.90;;;;;;4986796;28;20042;-48
2023/07/05 06:45:05;;;;;;;4.70;2.72;;;15.10;99.90;;;;;;4988561;28;20122;-49
2023/07/05 06:47:31;;;;;;;8.25;3.10;;;15.10;99.90;;;;;;4989866;28;20088;-48
2023/07/05 06:49:57;;;;;;;6.18;3.13;;;15.10;99.90;;;;;;4989666;28;20451;-48
2023/07/05 06:52:23;;;;;;;5.65;2.53;;;15.10;99.90;;;;;;4985624;28;20450;-47
2023/07/05 06:54:49;;;;;;;3.72;2.17;;;15.10;99.90;;;;;;4989669;28;20066;-48
2023/07/05 06:57:15;;;;;;;6.28;2.53;;;15.10;99.90;;;;;;4984083;28;20129;-48
2023/07/05 06:59:43;;;;;;;3.10;2.05;;;15.10;99.90;;;;;;4991176;28;20118;-48
2023/07/05 07:02:10;;;;;;;7.93;2.40;;;15.10;99.90;;;;;;4990752;28;20077;-48
2023/07/05 07:04:36;;;;;;;4.30;2.25;;;15.10;99.90;;;;;;4982274;28;20110;-48
2023/07/05 07:07:02;;;;;;;5.78;2.47;;;15.10;99.90;;;;;;4985846;28;20078;-52
2023/07/05 07:09:27;;;;;;;7.28;2.47;;;15.10;99.90;;;;;;4987948;28;20510;-48
2023/07/05 07:11:53;;;;;;;5.43;3.40;;;15.20;99.90;;;;;;4986221;28;20046;-48
2023/07/05 07:14:19;;;;;;;5.13;2.78;;;15.10;99.90;;;;;;4985893;28;20114;-50
2023/07/05 07:16:44;;;;;;;5.32;2.15;;;15.10;99.90;;;;;;4989530;28;20042;-51
2023/07/05 07:19:10;;;;;;;6.63;2.85;;;15.20;99.90;;;;;;4988665;28;20096;-47
2023/07/05 07:21:38;;;;;;;22.83;3.00;;;15.20;99.90;;;;;;4988066;28;20069;-48
2023/07/05 07:24:05;;;;;;;5.63;2.30;;;15.30;99.90;;;;;;4986223;28;20038;-51
2023/07/05 07:26:30;;;;;;;8.10;1.85;;;15.30;99.90;;;;;;4982459;28;20118;-55
2023/07/05 07:28:56;;;;;;;3.50;2.50;;;15.30;99.90;;;;;;4987852;28;20115;-49
2023/07/05 07:31:27;;;;;;;3.03;1.65;;;15.30;99.90;;;;;;4985885;28;20065;-50
2023/07/05 07:33:53;;;;;;;8.27;2.83;;;15.30;99.90;;;;;;4985032;28;20058;-47
2023/07/05 07:36:23;;;;;;;2.90;1.67;;;15.30;99.90;;;;;;4986291;28;20077;-48
2023/07/05 07:38:50;;;;;;;5.13;1.88;;;15.30;99.90;;;;;;4983525;28;20043;-48
2023/07/05 07:41:23;;;;;;;4.07;1.58;;;15.30;99.90;;;;;;4977335;28;20046;-48
2023/07/05 07:43:50;;;;;;;2.00;1.00;;;15.30;99.90;;;;;;4988138;28;20094;-48
2023/07/05 07:46:18;;;;;;;2.80;1.33;;;15.20;99.90;;;;;;4986114;28;20104;-47
2023/07/05 07:48:47;;;;;;;9.48;1.70;;;15.10;99.90;;;;;;4988565;28;20469;-49
2023/07/05 07:51:13;;;;;;;5.57;1.30;;;14.90;99.90;;;;;;4985837;28;20081;-49
2023/07/05 07:53:39;;;;;;;3.65;1.85;;;14.60;99.90;;;;;;4983576;28;20046;-49
2023/07/05 07:56:12;;;;;;;1.95;0.90;;;14.40;99.90;;;;;;4989283;28;20038;-51
2023/07/05 07:58:38;;;;;;;4.05;0.90;;;14.30;99.90;;;;;;4981933;28;20126;-47
2023/07/05 08:01:16;;;;;;;1.83;0.90;;;14.30;99.90;;;;;;4986122;28;20041;-48
2023/07/05 08:03:42;;;;;;;3.72;0.65;;;14.30;99.90;;;;;;4987616;28;20586;-50
2023/07/05 08:06:08;;;;;;;3.53;0.70;;;14.30;99.90;;;;;;4986291;28;20042;-49
2023/07/05 08:08:35;;;;;;;1.27;0.50;;;14.30;99.90;;;;;;4988831;28;20038;-48
2023/07/05 08:11:05;;;;;;;3.70;0.70;;;14.30;99.90;;;;;;4987929;28;20456;-50
2023/07/05 08:13:31;;;;;;;2.65;0.40;;;14.20;99.90;;;;;;4987043;28;20074;-51
2023/07/05 08:15:58;;;;;;;1.42;0.30;;;14.10;99.90;;;;;;4986439;28;20038;-51
2023/07/05 08:18:25;;;;;;;2.90;0.47;;;14.00;99.90;;;;;;4986929;28;20046;-50
2023/07/05 08:20:51;;;;;;;0.70;0.30;;;13.80;99.90;;;;;;4990657;28;20096;-50
2023/07/05 08:23:17;;;;;;;2.58;0.30;;;13.70;99.90;;;;;;4990215;28;20046;-48
2023/07/05 08:25:43;;;;;;;1.42;0.40;;;13.50;99.90;;;;;;4980859;28;20035;-51
2023/07/05 08:28:11;;;;;;;;;;;13.40;99.90;;;;;;4985601;28;20042;-51
2023/07/05 08:30:39;;;;;;;1.88;0.57;;;13.30;99.90;;;;;;4990647;28;19968;-48
2023/07/05 08:33:06;;;;;;;3.63;0.65;;;13.20;99.90;;;;;;4986300;28;20399;-48
2023/07/05 08:35:31;;;;;;;4.63;0.60;;;13.20;99.90;;;;;;4982763;28;20472;-51
2023/07/05 08:37:57;;;;;;;2.10;0.40;;;13.10;99.90;;;;;;4986252;28;20066;-51
2023/07/05 08:40:30;;;;;;;1.75;0.30;;;13.10;99.90;;;;;;4990634;28;20411;-48
2023/07/05 08:43:08;;;;;;;4.03;0.40;;;13.00;99.90;;;;;;4982757;28;20096;-50
2023/07/05 08:45:43;;;;;;;1.10;0.30;;;13.00;99.90;;;;;;4990430;28;20100;-48
2023/07/05 08:48:15;;;;;;;3.88;0.40;;;13.00;99.90;;;;;;4984852;28;20451;-47
2023/07/05 08:50:47;;;;;;;1.55;0.30;;;13.00;99.90;;;;;;4990915;28;20070;-48
2023/07/05 08:53:19;;;;;;;5.20;0.50;;;13.00;99.90;;;;;;4994554;28;20053;-48
2023/07/05 08:56:03;;;;;;;2.65;0.50;;;13.00;99.90;;;;;;4994233;28;20053;-48
2023/07/05 08:58:43;;;;;;;3.40;0.80;;;13.10;99.90;;;;;;4994371;28;20035;-47
2023/07/05 09:01:32;;;;;;;2.15;0.65;;;13.10;99.90;;;;;;4990988;28;20440;-48
2023/07/05 09:03:58;;;;;;;3.33;0.63;;;13.10;99.90;;;;;;4983184;28;20030;-50
2023/07/05 09:06:32;;;;;;;3.17;0.50;;;13.10;99.90;;;;;;4986669;28;20058;-48
2023/07/05 09:09:27;;;;;;;2.55;0.50;;;13.10;99.90;;;;;;4986150;28;20427;-50
2023/07/05 09:12:05;;;;;;;4.38;0.90;;;13.00;99.90;;;;;;4986413;28;20049;-54
2023/07/05 09:14:54;;;;;;;2.53;1.15;;;13.00;99.90;;;;;;4984627;28;20034;-52
2023/07/05 09:17:28;;;;;;;2.45;0.80;;;13.00;99.90;;;;;;4984489;28;20058;-49
2023/07/05 09:20:13;;;;;;;2.50;1.08;;;12.90;99.90;;;;;;4985237;28;20049;-49
2023/07/05 09:22:39;;;;;;;4.25;1.15;;;12.80;99.90;;;;;;4982306;28;20050;-53
2023/07/05 09:25:05;;;;;;;8.13;1.10;;;12.80;99.90;;;;;;4984662;28;20046;-50
2023/07/05 09:27:33;;;;;;;4.70;1.00;;;12.70;99.90;;;;;;4981012;28;20034;-51
2023/07/05 09:30:10;;;;;;;5.18;0.88;;;12.70;99.90;;;;;;4980804;28;20117;-55
2023/07/05 09:32:41;;;;;;;5.10;1.10;;;12.70;99.90;;;;;;4981083;28;20195;-53
2023/07/05 09:35:21;;;;;;;2.83;1.00;;;12.70;99.90;;;;;;4981655;28;20068;-54
2023/07/05 09:38:01;;;;;;;3.30;0.80;;;12.60;99.90;;;;;;4982315;28;20546;-50
2023/07/05 09:40:35;;;;;;;5.00;1.25;;;12.60;99.90;;;;;;4983767;28;20423;-53
2023/07/05 09:43:15;;;;;;;5.15;1.30;;;12.60;99.90;;;;;;4983883;28;20045;-54
2023/07/05 09:45:41;;;;;;;5.22;1.13;;;12.70;99.90;;;;;;4982761;28;20419;-51
2023/07/05 09:48:10;;;;;;;16.42;1.83;;;12.80;99.90;;;;;;4980625;28;20034;-51
2023/07/05 09:50:45;;;;;;;3.88;1.08;;;12.90;99.90;;;;;;4982872;28;20073;-55
2023/07/05 09:53:29;;;;;;;5.13;1.33;;;13.00;99.90;;;;;;4980380;28;20048;-52
2023/07/05 09:56:04;;;;;;;5.05;0.77;;;13.10;99.90;;;;;;4981809;28;20443;-51
2023/07/05 09:58:30;;;;;;;3.50;0.98;;;13.20;99.90;;;;;;4983967;28;20042;-53
2023/07/05 10:01:02;;;;;;;9.65;1.38;;;13.30;99.90;;;;;;4983379;28;20058;-51
2023/07/05 10:03:36;;;;;;;8.38;1.00;;;13.40;99.90;;;;;;4982373;28;20045;-50
2023/07/05 10:06:07;;;;;;;11.27;1.42;;;13.50;99.90;;;;;;4984040;28;20050;-53
2023/07/05 10:08:43;;;;;;;8.57;1.50;;;13.60;99.90;;;;;;4980694;28;20046;-54
2023/07/05 10:11:33;;;;;;;6.30;0.60;;;13.70;99.90;;;;;;4986828;28;20038;-53
2023/07/05 10:14:10;;;;;;;6.90;1.17;;;13.70;99.90;;;;;;4976618;28;20385;-55
2023/07/05 10:16:56;;;;;;;3.75;0.85;;;13.70;99.90;;;;;;4984942;28;20053;-53
2023/07/05 10:19:32;;;;;;;4.30;1.25;;;13.60;99.90;;;;;;4984178;28;20061;-54
2023/07/05 10:22:30;;;;;;;7.85;1.02;;;13.50;99.90;;;;;;4982413;28;20038;-54
2023/07/05 10:25:01;;;;;;;9.38;1.30;;;13.40;99.90;;;;;;4978855;28;20046;-53
2023/07/05 10:27:36;;;;;;;9.65;1.00;;;13.30;99.90;;;;;;4982795;28;20126;-53
2023/07/05 10:30:14;;;;;;;8.93;0.98;;;13.30;99.90;;;;;;4982172;28;20034;-55
2023/07/05 10:32:41;;;;;;;9.45;1.38;;;13.30;99.90;;;;;;4980269;28;20077;-55
2023/07/05 10:35:27;;;;;;;8.88;1.00;;;13.40;99.90;;;;;;4984086;28;20615;-51
2023/07/05 10:37:54;;;;;;;8.05;2.05;;;13.40;99.90;;;;;;4982615;28;20439;-52
2023/07/05 10:40:21;;;;;;;9.73;1.20;;;13.40;99.90;;;;;;4982035;28;20242;-51
2023/07/05 10:42:53;;;;;;;4.97;1.15;;;13.40;99.90;;;;;;4981278;28;20089;-51
2023/07/05 10:45:21;;;;;;;7.00;1.17;;;13.40;99.90;;;;;;4982268;28;20042;-52
2023/07/05 10:47:52;;;;;;;7.65;0.80;;;13.30;99.90;;;;;;4979539;28;20106;-54
2023/07/05 10:50:28;;;;;;;5.63;0.98;;;13.30;99.90;;;;;;4981381;28;20030;-53
2023/07/05 10:52:59;;;;;;;6.57;0.70;;;13.20;99.90;;;;;;4983185;28;20069;-52
2023/07/05 10:55:42;;;;;;;6.88;1.10;;;13.10;99.90;;;;;;4979499;28;20042;-55
2023/07/05 10:58:14;;;;;;;4.60;0.77;;;12.90;99.90;;;;;;4977558;28;20038;-53
2023/07/05 11:01:13;;;;;;;7.90;1.20;;;12.80;99.90;;;;;;4981053;28;20625;-54
2023/07/05 11:04:01;;;;;;;3.00;0.77;;;12.80;99.90;;;;;;4981895;28;20112;-50
2023/07/05 11:06:27;;;;;;;;;;;12.70;99.90;;;;;;4988281;28;20034;-52
2023/07/05 11:08:53;;;;;;;5.05;0.98;;;12.70;99.90;;;;;;4986601;28;19922;-50
2023/07/05 11:11:27;;;;;;;3.70;0.68;;;12.70;99.90;;;;;;4987780;28;20161;-53
2023/07/05 11:13:54;;;;;;;5.18;0.75;;;12.70;99.90;;;;;;4977398;28;20265;-51
2023/07/05 11:16:30;;;;;;;8.00;1.45;;;12.70;99.90;;;;;;4987894;28;20073;-52
2023/07/05 11:19:04;;;;;;;9.13;1.42;;;12.80;99.90;;;;;;4985510;28;20149;-51
2023/07/05 11:21:50;;;;;;;8.57;1.00;;;12.70;99.90;;;;;;4983317;28;20113;-55
2023/07/05 11:24:30;;;;;;;12.68;2.33;;;12.70;99.90;;;;;;4981140;28;20507;-49
2023/07/05 11:26:57;;;;;;;6.47;1.48;;;12.70;99.90;;;;;;4980245;28;20045;-52
2023/07/05 11:29:27;;;;;;;9.02;1.95;;;12.70;99.90;;;;;;4983061;28;20046;-52
2023/07/05 11:31:53;;;;;;;5.40;1.90;;;12.80;99.90;;;;;;4981843;28;20050;-55
2023/07/05 11:34:24;;;;;;;6.43;1.23;;;12.80;99.90;;;;;;4982209;28;20034;-55
2023/07/05 11:36:53;;;;;;;9.57;1.63;;;12.90;99.90;;;;;;4981714;28;20451;-51
2023/07/05 11:39:34;;;;;;;3.78;1.27;;;12.90;99.90;;;;;;4983366;28;20046;-53
2023/07/05 11:42:12;;;;;;;5.55;1.27;;;13.00;99.90;;;;;;4980854;28;20529;-52
2023/07/05 11:44:42;;;;;;;6.95;1.77;;;13.00;99.90;;;;;;4983822;28;20062;-53
2023/07/05 11:47:34;;;;;;;5.93;1.73;;;13.10;99.90;;;;;;4982507;28;20048;-52
2023/07/05 11:50:08;;;;;;;10.15;2.65;;;13.20;99.90;;;;;;4983897;28;20141;-53
2023/07/05 11:52:36;;;;;;;7.55;2.42;;;13.20;99.90;;;;;;4984312;28;20484;-53
2023/07/05 11:55:24;;;;;;;10.27;1.23;;;13.20;99.90;;;;;;4980988;28;20026;-54
2023/07/05 11:58:08;;;;;;;;;;;13.10;99.90;;;;;;4985114;28;20493;-51
2023/07/05 12:00:47;;;;;;;9.82;2.28;;;13.20;99.90;;;;;;4983927;28;19918;-49
2023/07/05 12:03:12;;;;;;;5.65;1.00;;;13.20;99.90;;;;;;4985264;28;20101;-54
2023/07/05 12:05:39;;;;;;;8.87;1.50;;;13.20;99.90;;;;;;4983388;28;20250;-53
2023/07/05 12:08:09;;;;;;;4.45;1.35;;;13.10;99.90;;;;;;4985634;28;20038;-54
2023/07/05 12:10:36;;;;;;;11.18;2.08;;;13.10;99.90;;;;;;4982836;28;20058;-54
2023/07/05 12:13:03;;;;;;;;;;;13.10;99.90;;;;;;4985613;28;20088;-56
2023/07/05 12:15:29;;;;;;;8.45;1.98;;;13.20;99.90;;;;;;4983122;28;19918;-55
2023/07/05 12:17:55;;;;;;;7.60;1.42;;;13.20;99.90;;;;;;4985053;28;20561;-54
2023/07/05 12:20:28;;;;;;;18.63;2.47;;;13.20;99.90;;;;;;4983936;28;20038;-54
2023/07/05 12:22:55;;;;;;;9.38;1.77;;;13.20;99.90;;;;;;4983147;28;20097;-55
2023/07/05 12:25:22;;;;;;;4.95;1.13;;;13.20;99.90;;;;;;4982575;28;20129;-53
2023/07/05 12:27:48;;;;;;;;;;;13.30;99.90;;;;;;4980969;28;20057;-52
2023/07/05 12:30:19;;;;;;;8.30;1.42;;;13.40;99.90;;;;;;4982818;28;19922;-55
2023/07/05 12:32:51;;;;;;;7.70;2.25;;;13.50;99.90;;;;;;4981459;28;20498;-55
2023/07/05 12:35:34;;;;;;;11.15;2.17;;;13.60;99.90;;;;;;4981665;28;20042;-54
2023/07/05 12:38:00;;;;;;;6.82;1.90;;;13.80;99.90;;;;;;4983443;28;20038;-54
2023/07/05 12:40:34;;;;;;;6.85;2.45;;;13.80;99.90;;;;;;4982452;28;20034;-52
2023/07/05 12:43:03;;;;;;;17.13;2.55;;;13.80;99.90;;;;;;4985310;28;20042;-55
2023/07/05 12:45:35;;;;;;;8.20;1.88;;;13.80;99.90;;;;;;4984178;28;20438;-52
2023/07/05 12:48:24;;;;;;;14.65;2.15;;;13.90;99.90;;;;;;4985436;28;20035;-53
2023/07/05 12:51:01;;;;;;;14.00;2.83;;;14.00;99.90;;;;;;4983634;28;20469;-56
2023/07/05 12:53:27;;;;;;;13.43;2.58;;;14.00;99.90;;;;;;4984562;28;20121;-54
2023/07/05 12:56:16;;;;;;;5.50;1.75;;;14.10;99.90;;;;;;4982290;28;21157;-54
2023/07/05 12:59:05;;;;;;;7.70;1.73;;;14.20;99.90;;;;;;4985699;28;20355;-55
2023/07/05 13:01:35;;;;;;;12.15;2.30;;;14.40;99.90;;;;;;4984720;28;20468;-52